Time;durP1;ratioP1;P1;durP2;ratioP2;P2;SDS_P1;SDS_P2;PMS_P1;PMS_P2;Temp;Humidity;BMP_temperature;BMP_pressure;BME280_temperature;BME280_humidity;BME280_pressure;Samples;Min_cycle;Max_cycle;Signal;HPM_P1;HPM_P2
2022/09/20 00:00:06;;;;;;;3.70;1.80;;;9.60;99.90;;;;;;5055812;28;20599;-70
2022/09/20 00:02:31;;;;;;;5.20;2.17;;;9.60;99.90;;;;;;5052845;28;20504;-71
2022/09/20 00:04:57;;;;;;;9.38;2.33;;;9.60;99.90;;;;;;5053640;28;20033;-71
2022/09/20 00:07:22;;;;;;;5.38;2.63;;;9.60;99.90;;;;;;5053125;28;20377;-70
2022/09/20 00:09:48;;;;;;;4.20;2.38;;;9.60;99.90;;;;;;5052847;28;20396;-71
2022/09/20 00:12:13;;;;;;;7.03;2.45;;;9.60;99.90;;;;;;5052550;28;20398;-70
2022/09/20 00:14:39;;;;;;;9.32;2.53;;;9.60;99.90;;;;;;5053216;28;20059;-70
2022/09/20 00:17:05;;;;;;;6.47;2.70;;;9.50;99.90;;;;;;5053290;28;20025;-70
2022/09/20 00:19:30;;;;;;;7.97;2.83;;;9.60;99.90;;;;;;5053034;28;20025;-70
2022/09/20 00:21:56;;;;;;;6.13;2.47;;;9.60;99.90;;;;;;5052533;28;20120;-70
2022/09/20 00:24:21;;;;;;;6.63;2.75;;;9.60;99.90;;;;;;5052868;28;20079;-70
2022/09/20 00:26:47;;;;;;;8.38;2.28;;;9.70;99.90;;;;;;5051980;28;20664;-70
2022/09/20 00:29:13;;;;;;;5.30;2.50;;;9.70;99.90;;;;;;5052313;28;20082;-70
2022/09/20 00:31:41;;;;;;;3.45;2.00;;;9.80;99.90;;;;;;5053094;28;20036;-70
2022/09/20 00:36:53;;;;;;;7.55;2.20;;;9.90;99.90;;;;;;5052408;28;20068;-70
2022/09/20 00:39:18;;;;;;;8.05;2.60;;;10.00;99.90;;;;;;5052958;28;20100;-70
2022/09/20 00:41:44;;;;;;;4.53;2.22;;;10.00;99.90;;;;;;5053002;28;20063;-70
2022/09/20 00:44:39;;;;;;;6.65;2.38;;;10.10;99.90;;;;;;5052250;28;20033;-70
2022/09/20 00:47:11;;;;;;;5.60;2.13;;;10.10;99.90;;;;;;5053103;28;20021;-70
2022/09/20 00:49:37;;;;;;;9.60;2.45;;;10.10;99.90;;;;;;5053117;28;20029;-70
2022/09/20 00:52:03;;;;;;;7.85;2.92;;;10.10;99.90;;;;;;5051101;28;20068;-70
2022/09/20 00:54:30;;;;;;;7.22;2.42;;;10.20;99.90;;;;;;5052751;28;20385;-70
2022/09/20 00:56:56;;;;;;;9.40;2.38;;;10.20;99.90;;;;;;5050515;28;20051;-70
2022/09/20 00:59:26;;;;;;;8.30;2.60;;;10.20;99.90;;;;;;5051252;28;20028;-70
2022/09/20 01:01:59;;;;;;;8.45;2.83;;;10.20;99.90;;;;;;5053020;28;20108;-70
2022/09/20 01:04:26;;;;;;;8.82;2.75;;;10.20;99.90;;;;;;5046204;28;20525;-71
2022/09/20 01:06:55;;;;;;;9.07;2.78;;;10.20;99.90;;;;;;5033160;28;20129;-71
2022/09/20 01:09:21;;;;;;;7.82;2.83;;;10.20;99.90;;;;;;5030975;28;20021;-71
2022/09/20 01:11:49;;;;;;;7.90;2.33;;;10.20;99.90;;;;;;5030836;28;20107;-70
2022/09/20 01:14:17;;;;;;;10.00;3.38;;;10.30;99.90;;;;;;5032515;28;20013;-70
2022/09/20 01:16:43;;;;;;;7.18;1.98;;;10.30;99.90;;;;;;5033385;28;20049;-70
2022/09/20 01:19:40;;;;;;;5.50;2.20;;;10.30;99.90;;;;;;5051164;28;20056;-70
2022/09/20 01:22:31;;;;;;;6.65;2.03;;;10.30;99.90;;;;;;5052109;28;20021;-70
2022/09/20 01:25:10;;;;;;;5.53;1.80;;;10.20;99.90;;;;;;5050140;28;20056;-71
2022/09/20 01:27:54;;;;;;;3.78;1.70;;;10.20;99.90;;;;;;5052165;28;20029;-71
2022/09/20 01:30:37;;;;;;;5.97;1.65;;;10.00;99.90;;;;;;5052313;28;20473;-71
2022/09/20 01:33:22;;;;;;;7.03;2.15;;;9.90;99.90;;;;;;5051666;28;20032;-71
2022/09/20 01:35:51;;;;;;;3.95;1.58;;;9.80;99.90;;;;;;5052457;28;20469;-71
2022/09/20 01:38:26;;;;;;;5.72;1.90;;;9.70;99.90;;;;;;5050081;28;20043;-71
2022/09/20 01:41:04;;;;;;;4.45;1.95;;;9.60;99.90;;;;;;5051638;28;20029;-72
2022/09/20 01:43:53;;;;;;;6.35;2.17;;;9.60;99.90;;;;;;5051847;28;20021;-71
2022/09/20 01:46:33;;;;;;;5.25;1.80;;;9.60;99.90;;;;;;5050130;28;20025;-72
2022/09/20 01:49:31;;;;;;;4.13;1.90;;;9.60;99.90;;;;;;5051783;28;20025;-71
2022/09/20 01:52:22;;;;;;;4.35;1.98;;;9.60;99.90;;;;;;5051600;28;20033;-71
2022/09/20 01:54:56;;;;;;;3.05;1.90;;;9.60;99.90;;;;;;5051272;28;20366;-72
2022/09/20 01:57:48;;;;;;;9.55;2.20;;;9.60;99.90;;;;;;5051642;28;20040;-71
2022/09/20 02:00:22;;;;;;;3.85;2.00;;;9.60;99.90;;;;;;5049454;28;20023;-71
2022/09/20 02:02:51;;;;;;;5.10;2.00;;;9.60;99.90;;;;;;5050727;28;20021;-71
2022/09/20 02:05:52;;;;;;;6.53;1.83;;;9.60;99.90;;;;;;5051285;28;20029;-71
2022/09/20 02:08:39;;;;;;;5.55;1.52;;;9.60;99.90;;;;;;5050776;28;20425;-71
2022/09/20 02:11:14;;;;;;;3.00;1.52;;;9.60;99.90;;;;;;5051870;28;20025;-71
2022/09/20 02:13:39;;;;;;;3.55;1.98;;;9.70;99.90;;;;;;5050357;28;20020;-71
2022/09/20 02:16:44;;;;;;;6.70;2.10;;;9.70;99.90;;;;;;5050804;28;20051;-71
2022/09/20 02:19:48;;;;;;;3.58;1.30;;;9.70;99.90;;;;;;5051079;28;20025;-70
2022/09/20 02:22:18;;;;;;;7.38;1.60;;;9.80;99.90;;;;;;5027525;28;20041;-70
2022/09/20 02:25:23;;;;;;;5.32;1.85;;;9.80;99.90;;;;;;5051554;28;20116;-70
2022/09/20 02:28:24;;;;;;;5.93;2.05;;;9.90;99.90;;;;;;5043992;28;20044;-70
2022/09/20 02:31:06;;;;;;;4.70;1.70;;;10.00;99.90;;;;;;5050112;28;20025;-71
2022/09/20 02:33:41;;;;;;;6.85;2.13;;;10.00;99.90;;;;;;5049707;28;20028;-70
2022/09/20 02:36:35;;;;;;;5.18;2.22;;;10.10;99.90;;;;;;5049068;28;20561;-70
2022/09/20 02:39:14;;;;;;;8.40;2.03;;;10.20;99.90;;;;;;5043923;28;20396;-70
2022/09/20 02:41:52;;;;;;;3.90;2.00;;;10.20;99.90;;;;;;5049841;28;20426;-70
2022/09/20 02:44:30;;;;;;;3.60;1.92;;;10.30;99.90;;;;;;5048698;28;20037;-71
2022/09/20 02:47:30;;;;;;;4.90;1.92;;;10.30;99.90;;;;;;5051139;28;20021;-70
2022/09/20 02:50:55;;;;;;;5.18;1.98;;;10.40;99.90;;;;;;5038304;28;20041;-70
2022/09/20 02:53:38;;;;;;;6.32;1.83;;;10.40;99.90;;;;;;5012765;28;20049;-70
2022/09/20 02:56:35;;;;;;;4.35;1.95;;;10.40;99.90;;;;;;5013179;28;20422;-70
2022/09/20 02:59:09;;;;;;;3.75;1.80;;;10.40;99.90;;;;;;5038419;28;20040;-70
2022/09/20 03:02:12;;;;;;;4.65;1.58;;;10.40;99.90;;;;;;5055121;28;20041;-71
2022/09/20 03:04:59;;;;;;;6.43;1.83;;;10.50;99.90;;;;;;5054501;28;20503;-70
2022/09/20 03:07:31;;;;;;;4.00;1.55;;;10.50;99.90;;;;;;5053587;28;20037;-70
2022/09/20 03:10:44;;;;;;;4.43;1.27;;;10.50;99.90;;;;;;5054208;28;20102;-70
2022/09/20 03:13:28;;;;;;;6.53;2.00;;;10.50;99.90;;;;;;5050797;28;20525;-70
2022/09/20 03:15:57;;;;;;;3.97;1.90;;;10.50;99.90;;;;;;5054676;28;20100;-70
2022/09/20 03:18:32;;;;;;;5.93;2.30;;;10.60;99.90;;;;;;5052558;28;20029;-71
2022/09/20 03:21:07;;;;;;;5.18;2.17;;;10.60;99.90;;;;;;5053858;28;20512;-72
2022/09/20 03:23:41;;;;;;;5.45;2.17;;;10.60;99.90;;;;;;5054987;28;20363;-71
2022/09/20 03:26:14;;;;;;;6.72;2.80;;;10.60;99.90;;;;;;5054123;28;20480;-72
2022/09/20 03:29:28;;;;;;;4.68;2.17;;;10.50;99.90;;;;;;5054839;28;20025;-72
2022/09/20 03:32:29;;;;;;;5.07;1.83;;;10.50;99.90;;;;;;5049429;28;20458;-73
2022/09/20 03:35:41;;;;;;;3.40;2.00;;;10.50;99.90;;;;;;5053373;28;20131;-71
2022/09/20 03:38:43;;;;;;;7.13;2.30;;;10.50;99.90;;;;;;5054361;28;20390;-71
2022/09/20 03:41:31;;;;;;;6.70;2.25;;;10.50;99.90;;;;;;5052912;28;20400;-71
2022/09/20 03:43:56;;;;;;;8.35;2.55;;;10.40;99.90;;;;;;5054113;28;20029;-71
2022/09/20 03:46:44;;;;;;;6.50;2.25;;;10.50;99.90;;;;;;5052416;28;20025;-71
2022/09/20 03:49:42;;;;;;;6.60;2.20;;;10.50;99.90;;;;;;5054092;28;20032;-71
2022/09/20 03:52:48;;;;;;;5.45;2.20;;;10.50;99.90;;;;;;5054007;28;20045;-71
2022/09/20 03:55:50;;;;;;;5.72;2.00;;;10.50;99.90;;;;;;5053032;28;20025;-71
2022/09/20 03:58:26;;;;;;;12.50;2.25;;;10.50;99.90;;;;;;5054150;28;20154;-71
2022/09/20 04:01:28;;;;;;;7.28;2.15;;;10.50;99.90;;;;;;5053632;28;20021;-71
2022/09/20 04:04:32;;;;;;;8.73;1.90;;;10.50;99.90;;;;;;5052938;28;20087;-71
2022/09/20 04:07:09;;;;;;;6.32;1.92;;;10.50;99.90;;;;;;5045274;28;20041;-71
2022/09/20 04:09:53;;;;;;;5.25;2.00;;;10.50;99.90;;;;;;5054055;28;20037;-71
2022/09/20 04:12:26;;;;;;;4.72;2.25;;;10.50;99.90;;;;;;5052270;28;20103;-71
2022/09/20 04:15:29;;;;;;;5.88;1.90;;;10.50;99.90;;;;;;5053274;28;20041;-71
2022/09/20 04:18:04;;;;;;;3.85;1.67;;;10.50;99.90;;;;;;5053751;28;20037;-71
2022/09/20 04:20:51;;;;;;;5.63;1.95;;;10.50;99.90;;;;;;5053844;28;20021;-71
2022/09/20 04:23:38;;;;;;;7.38;2.25;;;10.50;99.90;;;;;;5053445;28;20067;-71
2022/09/20 04:26:04;;;;;;;6.97;2.00;;;10.50;99.90;;;;;;5053633;28;20036;-71
2022/09/20 04:28:46;;;;;;;8.20;2.08;;;10.50;99.90;;;;;;5051491;28;20037;-70
2022/09/20 04:31:36;;;;;;;4.20;1.90;;;10.40;99.90;;;;;;5052302;28;20021;-71
2022/09/20 04:34:09;;;;;;;5.97;2.22;;;10.30;99.90;;;;;;5056517;28;20049;-70
2022/09/20 04:36:56;;;;;;;8.07;2.13;;;10.20;99.90;;;;;;5051027;28;20032;-70
2022/09/20 04:39:46;;;;;;;7.38;2.28;;;10.10;99.90;;;;;;5048948;28;20013;-70
2022/09/20 04:42:37;;;;;;;4.55;2.03;;;10.10;99.90;;;;;;5049342;28;20382;-70
2022/09/20 04:45:29;;;;;;;9.80;3.03;;;10.10;99.90;;;;;;5051002;28;20040;-71
2022/09/20 04:48:12;;;;;;;3.67;1.75;;;10.10;99.90;;;;;;5051773;28;20108;-70
2022/09/20 04:50:56;;;;;;;8.82;2.38;;;10.20;99.90;;;;;;5051412;28;20471;-69
2022/09/20 04:53:36;;;;;;;6.45;2.00;;;10.10;99.90;;;;;;5055191;28;20394;-70
2022/09/20 04:56:40;;;;;;;6.43;2.17;;;10.00;99.90;;;;;;5046013;28;20025;-71
2022/09/20 04:59:06;;;;;;;4.50;1.88;;;10.00;99.90;;;;;;5052147;28;20021;-71
2022/09/20 05:01:51;;;;;;;9.40;2.50;;;10.00;99.90;;;;;;5053322;28;20094;-70
2022/09/20 05:04:54;;;;;;;5.82;1.95;;;10.00;99.90;;;;;;5050070;28;20035;-71
2022/09/20 05:07:55;;;;;;;6.53;2.45;;;10.00;99.90;;;;;;5048732;28;20060;-70
2022/09/20 05:10:42;;;;;;;8.15;3.60;;;10.10;99.90;;;;;;5051870;28;20078;-70
2022/09/20 05:13:11;;;;;;;4.45;2.05;;;10.20;99.90;;;;;;5050957;28;20485;-70
2022/09/20 05:15:43;;;;;;;7.35;2.40;;;10.30;99.90;;;;;;5048077;28;20082;-70
2022/09/20 05:18:34;;;;;;;7.43;2.13;;;10.30;99.90;;;;;;5047985;28;20047;-70
2022/09/20 05:21:31;;;;;;;6.30;2.05;;;10.40;99.90;;;;;;5049319;28;20043;-70
2022/09/20 05:24:02;;;;;;;6.93;1.95;;;10.50;99.90;;;;;;5034862;28;20119;-69
2022/09/20 05:26:39;;;;;;;3.95;2.17;;;10.50;99.90;;;;;;5038304;28;20052;-69
2022/09/20 05:29:37;;;;;;;4.18;1.90;;;10.60;99.90;;;;;;5050464;28;20024;-71
2022/09/20 05:32:24;;;;;;;4.95;1.80;;;10.50;99.90;;;;;;5035887;28;20608;-70
2022/09/20 05:35:05;;;;;;;13.85;2.10;;;10.50;99.90;;;;;;5049239;28;20036;-68
2022/09/20 05:37:41;;;;;;;5.18;1.77;;;10.40;99.90;;;;;;5054391;28;20392;-71
2022/09/20 05:40:32;;;;;;;6.50;2.28;;;10.40;99.90;;;;;;5049685;28;20025;-70
2022/09/20 05:43:23;;;;;;;5.90;1.98;;;10.40;99.90;;;;;;5035522;28;20090;-69
2022/09/20 05:46:01;;;;;;;6.82;1.77;;;10.50;99.90;;;;;;5050146;28;20036;-69
2022/09/20 05:48:37;;;;;;;6.97;2.00;;;10.50;99.90;;;;;;5051268;28;20017;-69
2022/09/20 05:51:25;;;;;;;6.53;2.60;;;10.50;99.90;;;;;;5066511;28;20032;-69
2022/09/20 05:54:20;;;;;;;4.32;2.25;;;10.50;99.90;;;;;;5040954;28;20048;-70
2022/09/20 05:57:00;;;;;;;5.25;3.08;;;10.60;99.90;;;;;;5065501;28;20156;-70
2022/09/20 05:59:40;;;;;;;5.40;2.00;;;10.60;99.90;;;;;;5049820;28;20021;-69
2022/09/20 06:02:30;;;;;;;6.90;1.83;;;10.70;99.90;;;;;;5055060;28;20082;-70
2022/09/20 06:05:13;;;;;;;4.65;1.80;;;10.70;99.90;;;;;;5056497;28;20048;-70
2022/09/20 06:08:16;;;;;;;7.65;1.83;;;10.70;99.90;;;;;;5054456;28;20032;-70
2022/09/20 06:10:56;;;;;;;5.97;1.85;;;10.80;99.90;;;;;;5035685;28;20401;-70
2022/09/20 06:13:45;;;;;;;2.33;1.70;;;10.80;99.90;;;;;;5048445;28;20056;-71
2022/09/20 06:16:36;;;;;;;4.78;1.90;;;10.80;99.90;;;;;;5050408;28;20383;-70
2022/09/20 06:19:11;;;;;;;3.78;1.83;;;10.80;99.90;;;;;;5052990;28;20021;-70
2022/09/20 06:21:48;;;;;;;4.15;2.10;;;10.90;99.90;;;;;;5050557;28;20025;-70
2022/09/20 06:24:17;;;;;;;4.43;2.22;;;10.90;99.90;;;;;;5049914;28;20086;-71
2022/09/20 06:26:44;;;;;;;6.43;2.45;;;11.00;99.90;;;;;;5050653;28;20075;-69
2022/09/20 06:29:14;;;;;;;5.45;2.15;;;11.00;99.90;;;;;;5051128;28;20023;-70
2022/09/20 06:31:40;;;;;;;10.85;2.53;;;11.10;99.90;;;;;;5050062;28;20037;-70
2022/09/20 06:34:12;;;;;;;5.10;2.47;;;11.10;99.90;;;;;;5071034;28;20028;-70
2022/09/20 06:42:28;;;;;;;4.72;1.90;;;11.30;99.90;;;;;;5070617;28;20043;-70
2022/09/20 06:44:54;;;;;;;5.22;2.08;;;11.40;99.90;;;;;;5070352;28;20016;-72
2022/09/20 06:47:21;;;;;;;3.00;1.70;;;11.40;99.90;;;;;;5070161;28;20393;-72
2022/09/20 06:49:49;;;;;;;6.28;2.10;;;11.50;99.90;;;;;;5071481;28;20587;-72
2022/09/20 06:52:19;;;;;;;5.20;1.90;;;11.60;99.90;;;;;;5071293;28;20056;-70
2022/09/20 06:54:47;;;;;;;5.82;1.70;;;11.60;99.90;;;;;;5071793;28;20505;-70
2022/09/20 06:57:20;;;;;;;4.63;1.88;;;11.70;99.90;;;;;;5070798;28;20465;-72
2022/09/20 06:59:45;;;;;;;5.97;1.85;;;11.80;99.90;;;;;;5071620;28;20432;-70
2022/09/20 07:02:11;;;;;;;6.18;2.33;;;11.90;99.90;;;;;;5070096;28;20017;-72
2022/09/20 07:04:37;;;;;;;7.43;2.30;;;11.90;99.90;;;;;;5069495;28;20031;-71
2022/09/20 07:07:04;;;;;;;5.82;2.03;;;12.00;99.90;;;;;;5071718;28;20021;-71
2022/09/20 07:09:30;;;;;;;5.53;1.90;;;12.10;99.90;;;;;;5069699;28;20028;-70
2022/09/20 07:11:58;;;;;;;7.55;2.30;;;12.10;99.90;;;;;;5071424;28;20024;-71
2022/09/20 07:14:25;;;;;;;5.07;2.25;;;12.10;99.90;;;;;;5070919;28;20020;-72
2022/09/20 07:16:51;;;;;;;3.65;1.92;;;12.10;99.90;;;;;;5070588;28;20531;-71
2022/09/20 07:19:17;;;;;;;3.63;1.65;;;12.10;99.90;;;;;;5069866;28;20027;-70
2022/09/20 07:21:42;;;;;;;8.88;2.38;;;12.10;99.90;;;;;;5070064;28;20119;-71
2022/09/20 07:24:08;;;;;;;5.45;1.88;;;12.10;99.90;;;;;;5070487;28;20016;-70
2022/09/20 07:26:34;;;;;;;11.00;1.98;;;12.10;99.90;;;;;;5071450;28;20047;-70
2022/09/20 07:29:00;;;;;;;3.10;1.58;;;12.20;99.90;;;;;;5070085;28;20036;-70
2022/09/20 07:31:27;;;;;;;1.90;1.17;;;12.30;99.90;;;;;;5070533;28;20366;-69
2022/09/20 07:33:53;;;;;;;2.05;1.23;;;12.40;99.90;;;;;;5071537;28;20031;-70
2022/09/20 07:36:19;;;;;;;4.63;1.20;;;12.50;99.90;;;;;;5072589;28;20032;-70
2022/09/20 07:38:50;;;;;;;4.60;1.45;;;12.50;99.90;;;;;;5074290;28;20016;-70
2022/09/20 07:41:21;;;;;;;2.35;0.80;;;12.60;99.90;;;;;;5073634;28;20111;-69
2022/09/20 07:43:47;;;;;;;;;;;12.60;99.90;;;;;;5073910;28;20020;-69
2022/09/20 07:46:12;;;;;;;2.53;1.20;;;12.70;99.90;;;;;;5073050;28;19915;-69
2022/09/20 07:48:39;;;;;;;2.42;1.20;;;12.70;99.90;;;;;;5073466;28;20020;-70
2022/09/20 07:51:07;;;;;;;3.03;1.25;;;12.80;99.90;;;;;;5073541;28;20017;-70
2022/09/20 07:53:33;;;;;;;3.22;1.20;;;12.90;99.90;;;;;;5073907;28;20496;-70
2022/09/20 07:56:01;;;;;;;1.58;1.15;;;13.10;99.90;;;;;;5074581;28;20031;-69
2022/09/20 07:58:28;;;;;;;1.00;0.90;;;13.10;99.90;;;;;;5073026;28;20103;-69
2022/09/20 08:00:55;;;;;;;2.90;1.20;;;13.20;99.90;;;;;;5072721;28;20058;-70
2022/09/20 08:03:21;;;;;;;2.20;1.10;;;13.20;99.90;;;;;;5074258;28;20055;-69
2022/09/20 08:05:48;;;;;;;6.47;1.70;;;13.20;99.90;;;;;;5073812;28;20043;-69
2022/09/20 08:08:15;;;;;;;2.08;1.38;;;13.20;99.90;;;;;;5074335;28;20017;-69
2022/09/20 08:10:41;;;;;;;4.95;1.30;;;13.30;99.90;;;;;;5074453;28;20051;-69
2022/09/20 08:13:08;;;;;;;3.47;1.50;;;13.30;99.90;;;;;;5073489;28;20028;-69
2022/09/20 08:15:33;;;;;;;5.80;1.40;;;13.30;99.90;;;;;;5073060;28;20019;-70
2022/09/20 08:18:00;;;;;;;4.38;1.55;;;13.30;99.90;;;;;;5074533;28;20025;-70
2022/09/20 08:20:26;;;;;;;4.40;1.88;;;13.30;99.90;;;;;;5072034;28;20021;-69
2022/09/20 08:22:54;;;;;;;3.85;1.48;;;13.30;99.90;;;;;;5074310;28;20465;-69
2022/09/20 08:25:19;;;;;;;6.75;1.85;;;13.30;99.90;;;;;;5073613;28;20039;-69
2022/09/20 08:27:52;;;;;;;2.30;1.40;;;13.40;99.90;;;;;;5073194;28;20017;-69
2022/09/20 08:30:18;;;;;;;4.60;1.45;;;13.50;99.90;;;;;;5073456;28;20518;-69
2022/09/20 08:32:43;;;;;;;3.28;1.23;;;13.70;99.70;;;;;;5073697;28;20020;-69
2022/09/20 08:35:10;;;;;;;6.25;1.60;;;13.70;99.80;;;;;;5072962;28;20029;-69
2022/09/20 08:37:36;;;;;;;7.50;1.50;;;13.80;99.70;;;;;;5074094;28;20017;-69
2022/09/20 08:40:02;;;;;;;4.07;1.10;;;13.90;99.70;;;;;;5074417;28;20104;-69
2022/09/20 08:42:32;;;;;;;4.07;1.10;;;13.90;99.50;;;;;;5071847;28;20017;-69
2022/09/20 08:45:05;;;;;;;1.55;0.90;;;13.90;99.50;;;;;;5073762;28;20028;-68
2022/09/20 08:47:35;;;;;;;4.82;1.42;;;14.10;99.10;;;;;;5072819;28;20024;-68
2022/09/20 08:50:04;;;;;;;3.47;1.13;;;14.20;97.60;;;;;;5073142;28;20028;-68
2022/09/20 08:52:36;;;;;;;1.95;1.20;;;14.30;96.80;;;;;;5073853;28;20124;-71
2022/09/20 08:55:11;;;;;;;3.47;0.95;;;14.40;96.10;;;;;;5072260;28;20025;-69
2022/09/20 08:57:37;;;;;;;2.10;0.80;;;14.40;96.60;;;;;;5073537;28;20031;-71
2022/09/20 09:00:05;;;;;;;3.30;0.90;;;14.60;96.00;;;;;;5072248;28;20415;-71
2022/09/20 09:02:31;;;;;;;1.70;0.93;;;14.80;95.90;;;;;;5072704;28;20495;-72
2022/09/20 09:04:57;;;;;;;2.92;1.08;;;14.90;95.20;;;;;;5073092;28;20029;-71
2022/09/20 09:07:25;;;;;;;1.27;0.70;;;14.90;95.40;;;;;;5071599;28;20373;-72
2022/09/20 09:09:54;;;;;;;3.10;1.02;;;14.90;94.20;;;;;;5073108;28;20074;-72
2022/09/20 09:12:30;;;;;;;1.92;1.30;;;14.90;94.30;;;;;;5072912;28;20020;-70
2022/09/20 09:15:20;;;;;;;1.65;0.88;;;14.90;94.40;;;;;;5073338;28;20031;-69
2022/09/20 09:17:46;;;;;;;2.38;0.85;;;14.90;94.00;;;;;;5072398;28;20547;-69
2022/09/20 09:20:20;;;;;;;4.47;1.13;;;14.90;93.50;;;;;;5072780;28;20135;-69
2022/09/20 09:22:47;;;;;;;1.15;0.80;;;14.90;92.90;;;;;;5071670;28;20063;-69
2022/09/20 09:25:16;;;;;;;2.00;0.80;;;14.90;93.20;;;;;;5071972;28;20036;-69
2022/09/20 09:28:08;;;;;;;3.30;0.98;;;15.10;93.30;;;;;;5071528;28;20028;-69
2022/09/20 09:30:39;;;;;;;4.50;1.15;;;15.10;92.40;;;;;;5068677;28;20032;-70
2022/09/20 09:33:14;;;;;;;4.72;0.73;;;15.00;92.10;;;;;;5072277;28;20175;-68
2022/09/20 09:35:40;;;;;;;1.70;0.63;;;15.10;92.30;;;;;;5071143;28;20059;-69
2022/09/20 09:38:20;;;;;;;3.15;0.70;;;15.10;92.10;;;;;;5071605;28;20024;-69
2022/09/20 09:40:56;;;;;;;3.08;0.60;;;15.10;92.40;;;;;;5072511;28;20033;-69
2022/09/20 09:43:27;;;;;;;5.03;0.80;;;15.20;92.70;;;;;;5067827;28;20112;-68
2022/09/20 09:45:54;;;;;;;2.47;0.80;;;15.20;92.00;;;;;;5071724;28;20033;-69
2022/09/20 09:48:29;;;;;;;2.20;0.88;;;15.30;91.90;;;;;;5072364;28;20058;-69
2022/09/20 09:51:17;;;;;;;2.53;0.80;;;15.40;92.10;;;;;;5070866;28;20546;-69
2022/09/20 09:53:44;;;;;;;1.50;0.60;;;15.60;92.00;;;;;;5072326;28;20039;-69
2022/09/20 09:56:27;;;;;;;4.10;1.00;;;15.70;92.10;;;;;;5071932;28;20499;-69
2022/09/20 09:59:54;;;;;;;2.05;0.70;;;15.80;90.70;;;;;;5071415;28;20081;-69
2022/09/20 10:02:37;;;;;;;1.15;0.70;;;15.90;91.20;;;;;;5024041;28;20042;-68
2022/09/20 10:05:15;;;;;;;4.82;1.15;;;16.00;90.30;;;;;;5029772;28;20064;-69
2022/09/20 10:07:55;;;;;;;1.52;0.68;;;16.00;88.70;;;;;;5062804;28;20068;-69
2022/09/20 10:10:52;;;;;;;3.60;0.70;;;16.00;88.30;;;;;;5071683;28;20021;-69
2022/09/20 10:13:29;;;;;;;4.45;0.70;;;16.00;86.40;;;;;;5062242;28;20040;-69
2022/09/20 10:16:11;;;;;;;1.55;0.70;;;16.00;88.40;;;;;;5072113;28;20469;-69
2022/09/20 10:19:05;;;;;;;3.22;0.70;;;16.00;88.60;;;;;;5070509;28;20021;-69
2022/09/20 10:22:26;;;;;;;0.90;0.73;;;16.00;88.70;;;;;;5049390;28;20036;-68
2022/09/20 10:25:09;;;;;;;2.40;0.68;;;15.70;85.50;;;;;;5061860;28;20077;-68
2022/09/20 10:27:37;;;;;;;3.08;0.57;;;15.50;86.50;;;;;;5069950;28;20473;-69
2022/09/20 10:30:13;;;;;;;2.42;0.70;;;15.30;85.30;;;;;;5070365;28;20028;-69
2022/09/20 10:33:00;;;;;;;2.38;0.63;;;15.30;86.70;;;;;;5071911;28;20023;-69
2022/09/20 10:35:34;;;;;;;2.83;0.82;;;15.30;85.70;;;;;;5070671;28;20549;-68
2022/09/20 10:38:30;;;;;;;0.95;0.57;;;15.40;83.70;;;;;;5070199;28;20016;-69
2022/09/20 10:44:11;;;;;;;1.42;0.70;;;15.70;83.70;;;;;;5071828;28;20036;-69
2022/09/20 10:46:50;;;;;;;2.72;0.80;;;16.00;83.90;;;;;;5071510;28;20047;-69
2022/09/20 10:49:35;;;;;;;0.93;0.73;;;16.20;80.70;;;;;;5070859;28;20062;-69
2022/09/20 10:52:07;;;;;;;4.75;1.05;;;16.30;78.60;;;;;;5070017;28;20683;-69
2022/09/20 10:54:38;;;;;;;2.10;0.60;;;16.30;77.90;;;;;;5071973;28;20107;-69
2022/09/20 10:57:35;;;;;;;1.95;0.50;;;16.30;77.20;;;;;;5070258;28;20017;-68
2022/09/20 11:00:06;;;;;;;4.15;0.93;;;16.20;78.20;;;;;;5071833;28;20366;-69
2022/09/20 11:02:44;;;;;;;4.67;0.80;;;16.20;80.30;;;;;;5069973;28;20174;-71
2022/09/20 11:05:30;;;;;;;4.35;0.60;;;16.00;78.10;;;;;;5069806;28;20553;-71
2022/09/20 11:08:13;;;;;;;1.00;0.60;;;15.80;77.60;;;;;;5069300;28;20108;-73
2022/09/20 11:10:45;;;;;;;2.72;0.60;;;15.70;78.10;;;;;;5071078;28;20055;-73
2022/09/20 11:13:22;;;;;;;3.40;0.80;;;15.50;78.20;;;;;;5074860;28;20023;-72
2022/09/20 11:15:59;;;;;;;1.63;0.65;;;15.50;77.70;;;;;;5074765;28;20078;-73
2022/09/20 11:19:10;;;;;;;0.90;0.50;;;15.50;75.80;;;;;;5073519;28;20063;-73
2022/09/20 11:22:09;;;;;;;2.28;0.68;;;15.60;74.00;;;;;;5069752;28;20115;-73
2022/09/20 11:24:43;;;;;;;1.48;0.60;;;15.70;75.60;;;;;;5073580;28;20055;-72
2022/09/20 11:27:36;;;;;;;2.25;0.63;;;15.80;74.90;;;;;;5074798;28;20036;-70
2022/09/20 11:30:07;;;;;;;1.20;1.10;;;16.00;77.30;;;;;;5065072;28;20032;-70
2022/09/20 11:32:54;;;;;;;2.42;0.60;;;16.20;74.80;;;;;;5075112;28;20016;-68
2022/09/20 11:35:28;;;;;;;3.97;0.98;;;16.30;76.90;;;;;;5073897;28;20098;-68
2022/09/20 11:38:35;;;;;;;3.58;0.75;;;16.50;75.90;;;;;;5074582;28;20078;-69
2022/09/20 11:41:13;;;;;;;1.08;0.98;;;16.70;75.10;;;;;;5074141;28;20416;-68
2022/09/20 11:43:44;;;;;;;3.72;1.10;;;17.00;76.00;;;;;;5073808;28;20416;-68
2022/09/20 11:46:14;;;;;;;2.25;1.08;;;17.00;74.50;;;;;;5074338;28;20029;-71
2022/09/20 11:48:59;;;;;;;2.00;0.45;;;17.00;73.70;;;;;;5073439;28;20481;-68
2022/09/20 11:51:44;;;;;;;5.15;0.90;;;17.00;74.70;;;;;;5073689;28;20034;-69
2022/09/20 11:54:28;;;;;;;3.08;0.93;;;17.00;74.30;;;;;;5073621;28;20063;-68
2022/09/20 11:56:56;;;;;;;3.33;0.60;;;17.00;74.60;;;;;;5073899;28;20469;-70
2022/09/20 11:59:49;;;;;;;2.22;0.60;;;16.90;75.30;;;;;;5074102;28;20033;-69
2022/09/20 12:02:32;;;;;;;1.48;0.70;;;16.80;75.20;;;;;;5074103;28;20417;-69
2022/09/20 12:04:58;;;;;;;2.72;0.77;;;16.70;75.60;;;;;;5072416;28;20032;-68
2022/09/20 12:07:39;;;;;;;2.10;0.60;;;16.80;76.30;;;;;;5072622;28;20021;-72
2022/09/20 12:10:27;;;;;;;1.65;0.73;;;16.90;75.50;;;;;;5074036;28;20017;-69
2022/09/20 12:13:04;;;;;;;4.25;0.70;;;17.00;75.90;;;;;;5072874;28;20480;-68
2022/09/20 12:15:38;;;;;;;3.72;0.80;;;17.00;75.90;;;;;;5074103;28;20012;-68
2022/09/20 12:18:12;;;;;;;2.67;0.85;;;17.00;75.00;;;;;;5073639;28;20028;-68
2022/09/20 12:20:37;;;;;;;4.70;0.60;;;16.90;75.20;;;;;;5074037;28;20025;-69
2022/09/20 12:23:40;;;;;;;2.30;0.88;;;16.70;75.80;;;;;;5073713;28;20124;-68
2022/09/20 12:26:17;;;;;;;0.75;0.40;;;16.60;75.20;;;;;;5071416;28;20040;-69
2022/09/20 12:28:51;;;;;;;1.48;0.52;;;16.40;75.40;;;;;;5072559;28;20021;-68
2022/09/20 12:31:30;;;;;;;2.10;0.50;;;16.40;76.20;;;;;;5071367;28;20527;-68
2022/09/20 12:34:14;;;;;;;3.45;0.60;;;16.40;75.50;;;;;;5072480;28;20397;-68
2022/09/20 12:37:03;;;;;;;2.35;0.60;;;16.40;75.50;;;;;;5072148;28;20492;-68
2022/09/20 12:39:37;;;;;;;1.77;0.50;;;16.50;76.10;;;;;;5071244;28;20020;-68
2022/09/20 12:42:09;;;;;;;3.80;0.80;;;16.60;74.60;;;;;;5073604;28;20025;-69
2022/09/20 12:44:40;;;;;;;3.63;0.93;;;16.70;74.30;;;;;;5073685;28;20445;-69
2022/09/20 12:47:09;;;;;;;3.83;0.60;;;16.80;73.80;;;;;;5072576;28;20028;-69
2022/09/20 12:55:39;;;;;;;3.83;0.68;;;16.90;70.00;;;;;;5073183;28;20086;-69
2022/09/20 12:58:14;;;;;;;3.33;0.60;;;17.10;69.80;;;;;;5072954;28;20066;-68
2022/09/20 13:01:03;;;;;;;4.25;0.60;;;17.20;69.30;;;;;;5072795;28;20019;-69
2022/09/20 13:03:35;;;;;;;2.55;0.70;;;17.20;69.00;;;;;;5071687;28;20035;-69
2022/09/20 13:06:07;;;;;;;2.30;0.63;;;17.20;67.90;;;;;;5073149;28;20029;-69
2022/09/20 13:08:57;;;;;;;3.15;0.68;;;17.30;69.10;;;;;;5071172;28;20028;-69
2022/09/20 13:11:26;;;;;;;1.95;0.50;;;17.40;68.90;;;;;;5073507;28;20052;-70
2022/09/20 13:14:05;;;;;;;1.35;0.40;;;17.40;69.50;;;;;;5072400;28;20500;-72
2022/09/20 13:16:35;;;;;;;2.13;0.63;;;17.60;69.40;;;;;;5073022;28;20025;-72
2022/09/20 13:19:28;;;;;;;0.95;0.50;;;17.60;67.20;;;;;;5072749;28;20028;-73
2022/09/20 13:22:02;;;;;;;2.88;0.75;;;17.60;67.40;;;;;;5072204;28;20380;-72
2022/09/20 13:24:47;;;;;;;2.28;0.60;;;17.60;68.00;;;;;;5071059;28;20032;-72
2022/09/20 13:27:20;;;;;;;3.67;0.68;;;17.50;67.50;;;;;;5072509;28;20024;-72
2022/09/20 13:29:46;;;;;;;2.10;0.63;;;17.50;68.40;;;;;;5072137;28;20021;-73
2022/09/20 13:32:29;;;;;;;3.85;0.82;;;17.40;68.40;;;;;;5071000;28;20040;-72
2022/09/20 13:35:31;;;;;;;3.42;0.98;;;17.30;69.20;;;;;;5070267;28;20428;-71
2022/09/20 13:38:03;;;;;;;2.70;1.02;;;17.20;68.90;;;;;;5072444;28;20115;-72
2022/09/20 13:40:42;;;;;;;1.73;0.50;;;17.10;69.90;;;;;;5070926;28;20048;-71
2022/09/20 13:43:36;;;;;;;4.10;0.60;;;17.10;70.90;;;;;;5071585;28;20031;-71
2022/09/20 13:46:15;;;;;;;2.47;0.70;;;17.30;71.30;;;;;;5072512;28;20029;-71
2022/09/20 13:48:41;;;;;;;4.00;0.60;;;17.40;71.10;;;;;;5071811;28;20021;-69
2022/09/20 13:51:24;;;;;;;2.08;0.50;;;17.40;71.50;;;;;;5070822;28;20031;-69
2022/09/20 13:53:50;;;;;;;1.23;0.50;;;17.30;72.60;;;;;;5072184;28;20033;-69
2022/09/20 13:56:18;;;;;;;2.28;0.55;;;17.20;72.20;;;;;;5069943;28;20027;-72
2022/09/20 13:58:44;;;;;;;1.58;0.80;;;17.10;72.90;;;;;;5072046;28;20024;-69
2022/09/20 14:01:28;;;;;;;4.82;0.70;;;17.10;73.50;;;;;;5070494;28;20107;-69